Inland, Nebraska
Current Conditions -  °F | °C
As of 6:53 AM on Sunday 21 Dec 2014 (Local Time) from KHSI Reporting Station
Haze Haze  
Wind Chill: 28°   Ceiling: Unl
Heat Index: 33°   Visibility: 4mi
Dew Point: 32°   Wind: 6mph
Humidity: 96%   Direction: 180°S
Pressure: 29.82"   Gusts: NA
Location:  40.6°N, 98.22°W
Report Text: KHSI 211253Z AUTO 18005KT 4SM BR SCT095 01/00 A2982 RMK AO2 SLP114 T00060000
Loading
Personal Weather Stations






























Interactive Weather Map New forecast layout! Learn more

10-Day Weather Forecast

Advertisements
Track Severe Weather on mobile